Time;durP1;ratioP1;P1;durP2;ratioP2;P2;SDS_P1;SDS_P2;PMS_P1;PMS_P2;Temp;Humidity;BMP_temperature;BMP_pressure;BME280_temperature;BME280_humidity;BME280_pressure;Samples;Min_cycle;Max_cycle;Signal;HPM_P1;HPM_P2
2023/09/22 00:01:59;;;;;;;6.32;1.73;;;16.20;99.90;;;;;;5030073;28;20197;-82
2023/09/22 00:04:30;;;;;;;9.65;1.58;;;16.20;99.90;;;;;;5020073;28;20202;-83
2023/09/22 00:07:01;;;;;;;9.60;1.75;;;16.30;99.90;;;;;;5010681;28;20198;-82
2023/09/22 00:09:32;;;;;;;8.82;1.40;;;16.50;99.90;;;;;;5010240;28;20209;-82
2023/09/22 00:12:03;;;;;;;5.53;1.30;;;16.60;99.90;;;;;;5022025;28;20264;-83
2023/09/22 00:14:34;;;;;;;7.43;1.40;;;16.50;99.90;;;;;;5030385;28;20677;-83
2023/09/22 00:17:08;;;;;;;9.60;1.40;;;16.40;99.90;;;;;;5048732;28;20197;-82
2023/09/22 00:19:38;;;;;;;5.88;1.48;;;16.50;99.90;;;;;;5029906;28;20197;-84
2023/09/22 00:22:09;;;;;;;4.63;1.13;;;16.50;99.90;;;;;;5030430;28;20201;-82
2023/09/22 00:24:40;;;;;;;3.78;1.40;;;16.50;99.90;;;;;;5030609;28;20197;-82
2023/09/22 00:27:11;;;;;;;7.45;2.08;;;16.50;99.90;;;;;;5034708;28;20731;-82
2023/09/22 00:29:42;;;;;;;6.82;1.67;;;16.50;99.90;;;;;;5034116;28;20259;-82
2023/09/22 00:32:14;;;;;;;5.53;1.70;;;16.30;99.90;;;;;;5036656;28;20224;-83
2023/09/22 00:34:45;;;;;;;6.05;1.52;;;16.40;99.90;;;;;;5054107;28;20197;-82
2023/09/22 00:37:16;;;;;;;5.43;1.52;;;16.40;99.90;;;;;;5034644;28;20392;-82
2023/09/22 00:39:47;;;;;;;6.55;1.48;;;16.50;99.90;;;;;;5033570;28;20572;-83
2023/09/22 00:42:18;;;;;;;8.23;1.67;;;16.50;99.90;;;;;;5052743;28;20204;-83
2023/09/22 00:44:48;;;;;;;4.90;1.27;;;16.60;99.90;;;;;;5053246;28;20193;-83
2023/09/22 00:47:21;;;;;;;8.57;1.60;;;16.60;99.90;;;;;;5053915;28;20236;-83
2023/09/22 00:49:53;;;;;;;9.93;1.80;;;16.70;99.90;;;;;;5044607;28;20207;-83
2023/09/22 00:52:25;;;;;;;10.13;1.52;;;16.70;99.90;;;;;;5032043;28;20228;-83
2023/09/22 00:54:56;;;;;;;7.68;1.27;;;16.80;99.90;;;;;;5033446;28;20197;-82
2023/09/22 00:57:27;;;;;;;5.03;1.48;;;17.00;99.90;;;;;;5032631;28;20199;-81
2023/09/22 00:59:58;;;;;;;6.70;1.30;;;17.20;99.90;;;;;;5033067;28;20198;-82
2023/09/22 01:02:31;;;;;;;9.82;1.75;;;17.40;99.90;;;;;;5033306;28;20266;-84
2023/09/22 01:05:03;;;;;;;4.97;1.35;;;17.60;99.90;;;;;;5033034;28;20197;-82
2023/09/22 01:07:34;;;;;;;7.60;1.40;;;17.70;99.90;;;;;;5047038;28;20200;-82
2023/09/22 01:10:11;;;;;;;7.20;1.40;;;17.70;99.90;;;;;;5032589;28;20198;-83
2023/09/22 01:12:42;;;;;;;7.13;1.20;;;17.90;99.90;;;;;;5032425;28;20600;-83
2023/09/22 01:15:13;;;;;;;4.13;1.38;;;18.00;99.90;;;;;;5032906;28;20208;-82
2023/09/22 01:17:46;;;;;;;4.75;1.58;;;18.10;99.90;;;;;;5033475;28;20596;-83
2023/09/22 01:20:17;;;;;;;4.97;1.20;;;18.30;99.90;;;;;;5032741;28;20542;-83
2023/09/22 01:22:49;;;;;;;8.15;1.35;;;18.50;99.90;;;;;;5032436;28;20692;-83
2023/09/22 01:25:20;;;;;;;5.93;1.50;;;18.50;99.90;;;;;;5026326;28;20205;-82
2023/09/22 01:27:51;;;;;;;4.38;1.33;;;18.70;99.90;;;;;;5033196;28;20278;-83
2023/09/22 01:30:22;;;;;;;3.55;1.45;;;18.70;99.90;;;;;;5034367;28;20193;-83
2023/09/22 01:32:52;;;;;;;7.18;1.38;;;18.80;99.90;;;;;;5033301;28;20672;-83
2023/09/22 01:35:23;;;;;;;4.60;1.25;;;19.00;99.90;;;;;;5032751;28;20204;-83
2023/09/22 01:38:01;;;;;;;7.13;2.60;;;19.20;99.90;;;;;;5032766;28;20600;-83
2023/09/22 01:40:31;;;;;;;7.00;0.95;;;19.40;99.90;;;;;;5033130;28;20235;-84
2023/09/22 01:43:02;;;;;;;5.60;1.20;;;19.40;99.90;;;;;;5031774;28;20197;-83
2023/09/22 01:45:33;;;;;;;3.72;1.08;;;19.40;99.90;;;;;;5032404;28;20197;-83
2023/09/22 01:48:05;;;;;;;6.20;1.10;;;19.30;99.90;;;;;;5032421;28;20204;-83
2023/09/22 01:50:39;;;;;;;5.10;0.93;;;19.40;99.90;;;;;;5032194;28;20186;-83
2023/09/22 01:53:13;;;;;;;7.97;1.20;;;19.40;99.90;;;;;;5031796;28;20318;-83
2023/09/22 01:55:45;;;;;;;4.70;1.30;;;19.50;99.90;;;;;;5031831;28;20577;-84
2023/09/22 01:58:16;;;;;;;4.10;1.50;;;19.60;99.90;;;;;;5040103;28;20204;-83
2023/09/22 02:00:48;;;;;;;6.40;1.30;;;19.60;99.90;;;;;;5031722;28;20289;-84
2023/09/22 02:03:19;;;;;;;6.97;1.35;;;19.50;99.90;;;;;;5032448;28;20193;-84
2023/09/22 02:05:50;;;;;;;7.25;1.15;;;19.50;99.90;;;;;;5032637;28;20255;-84
2023/09/22 02:08:23;;;;;;;4.15;1.05;;;19.60;99.90;;;;;;5032643;28;20205;-85
2023/09/22 02:10:53;;;;;;;4.05;0.90;;;19.80;99.90;;;;;;5032647;28;20198;-83
2023/09/22 02:13:24;;;;;;;3.97;1.10;;;19.90;99.90;;;;;;5032188;28;20246;-83
2023/09/22 02:15:55;;;;;;;3.75;0.90;;;19.90;99.90;;;;;;5031708;28;20558;-84
2023/09/22 02:18:26;;;;;;;6.45;1.88;;;20.00;99.90;;;;;;5032007;28;20213;-83
2023/09/22 02:20:57;;;;;;;5.05;1.20;;;19.90;99.90;;;;;;5032235;28;20201;-84
2023/09/22 02:23:30;;;;;;;4.60;1.30;;;19.70;99.90;;;;;;5032433;28;20221;-84
2023/09/22 02:26:08;;;;;;;6.03;1.33;;;19.60;99.90;;;;;;5032427;28;20205;-86
2023/09/22 02:28:38;;;;;;;5.70;1.17;;;19.60;99.90;;;;;;5031990;28;20247;-83
2023/09/22 02:31:10;;;;;;;4.55;1.23;;;19.60;99.90;;;;;;5034112;28;20208;-84
2023/09/22 02:33:40;;;;;;;5.50;1.08;;;19.60;99.90;;;;;;5051713;28;20230;-84
2023/09/22 02:36:14;;;;;;;3.13;0.88;;;19.60;99.90;;;;;;5053235;28;20253;-84
2023/09/22 02:38:47;;;;;;;3.75;0.93;;;19.60;99.90;;;;;;5054014;28;20236;-85
2023/09/22 02:41:19;;;;;;;7.03;1.67;;;19.40;99.90;;;;;;5054429;28;20268;-82
2023/09/22 02:43:50;;;;;;;3.95;1.70;;;19.30;99.90;;;;;;5044506;28;20256;-84
2023/09/22 02:46:22;;;;;;;4.68;1.73;;;19.20;99.90;;;;;;5033610;28;20347;-85
2023/09/22 02:48:53;;;;;;;4.32;1.08;;;19.20;99.90;;;;;;5032954;28;20197;-84
2023/09/22 02:51:24;;;;;;;4.07;1.38;;;19.30;99.90;;;;;;5034245;28;20259;-82
2023/09/22 02:53:58;;;;;;;5.13;1.33;;;19.40;99.90;;;;;;5034296;28;20232;-83
2023/09/22 02:56:29;;;;;;;4.18;1.35;;;19.50;99.90;;;;;;5033027;28;20200;-83
2023/09/22 02:59:00;;;;;;;6.93;1.40;;;19.50;99.90;;;;;;5031111;28;20232;-83
2023/09/22 03:01:30;;;;;;;4.50;1.20;;;19.50;99.90;;;;;;5031592;28;20677;-83
2023/09/22 03:04:01;;;;;;;4.78;1.00;;;19.50;99.90;;;;;;5031564;28;20194;-83
2023/09/22 03:06:32;;;;;;;6.00;1.25;;;19.60;99.90;;;;;;5041182;28;20272;-82
2023/09/22 03:09:06;;;;;;;4.70;1.30;;;19.60;99.90;;;;;;5030815;28;20199;-83
2023/09/22 03:11:38;;;;;;;5.03;1.52;;;19.60;99.90;;;;;;5030724;28;20220;-82
2023/09/22 03:14:08;;;;;;;5.88;1.23;;;19.50;99.90;;;;;;5032219;28;20229;-84
2023/09/22 03:16:41;;;;;;;5.68;1.23;;;19.20;99.90;;;;;;5032099;28;20199;-84
2023/09/22 03:19:12;;;;;;;4.88;1.40;;;19.20;99.90;;;;;;5031599;28;20190;-84
2023/09/22 03:21:43;;;;;;;4.70;1.33;;;19.20;99.90;;;;;;5030273;28;20197;-85
2023/09/22 03:24:16;;;;;;;6.32;1.10;;;19.20;99.90;;;;;;5050176;28;20687;-82
2023/09/22 03:26:47;;;;;;;4.95;1.20;;;19.30;99.90;;;;;;5050957;28;20196;-83
2023/09/22 03:29:19;;;;;;;2.92;1.13;;;19.40;99.90;;;;;;5050844;28;20614;-82
2023/09/22 03:31:49;;;;;;;7.43;1.38;;;19.50;99.90;;;;;;5051087;28;20200;-81
2023/09/22 03:34:21;;;;;;;4.63;1.48;;;19.60;99.90;;;;;;5063025;28;20225;-82
2023/09/22 03:36:52;;;;;;;4.95;1.02;;;19.70;99.90;;;;;;5048739;28;20236;-82
2023/09/22 03:39:26;;;;;;;3.35;1.00;;;19.70;99.90;;;;;;5032421;28;20643;-82
2023/09/22 03:41:57;;;;;;;4.30;1.17;;;19.70;99.90;;;;;;5031484;28;20573;-81
2023/09/22 03:44:28;;;;;;;4.57;0.90;;;19.80;99.90;;;;;;5031580;28;20201;-82
2023/09/22 03:46:59;;;;;;;2.50;0.90;;;19.60;99.90;;;;;;5031434;28;20201;-82
2023/09/22 03:49:30;;;;;;;4.13;0.90;;;19.70;99.90;;;;;;5032407;28;20193;-82
2023/09/22 03:52:01;;;;;;;5.35;1.13;;;19.70;99.90;;;;;;5031832;28;20197;-82
2023/09/22 03:54:34;;;;;;;3.22;1.00;;;20.00;99.90;;;;;;5045214;28;20239;-80
2023/09/22 03:57:06;;;;;;;3.33;1.00;;;20.10;99.90;;;;;;5043322;28;20205;-80
2023/09/22 03:59:37;;;;;;;4.20;1.00;;;20.30;99.90;;;;;;5047192;28;20197;-81
2023/09/22 04:02:08;;;;;;;3.75;0.95;;;20.30;99.90;;;;;;5036213;28;20197;-82
2023/09/22 04:04:39;;;;;;;3.47;1.00;;;20.40;99.90;;;;;;5036515;28;20275;-83
2023/09/22 04:07:10;;;;;;;4.50;0.90;;;20.50;99.80;;;;;;5034492;28;20225;-83
2023/09/22 04:09:44;;;;;;;2.30;0.90;;;20.40;99.00;;;;;;5037068;28;20240;-82
2023/09/22 04:12:16;;;;;;;4.45;0.95;;;20.20;99.90;;;;;;5034593;28;20251;-83
2023/09/22 04:14:46;;;;;;;4.18;1.20;;;20.20;99.90;;;;;;5028619;28;20225;-83
2023/09/22 04:17:18;;;;;;;5.85;0.90;;;20.10;99.90;;;;;;5034769;28;20584;-84
2023/09/22 04:19:51;;;;;;;5.05;1.00;;;20.10;99.90;;;;;;5034182;28;20360;-83
2023/09/22 04:22:22;;;;;;;4.63;0.90;;;20.20;99.90;;;;;;5031656;28;20198;-83
2023/09/22 04:25:00;;;;;;;6.97;1.30;;;20.30;99.90;;;;;;5029369;28;20206;-82
2023/09/22 04:27:34;;;;;;;9.45;1.20;;;20.40;99.90;;;;;;5019877;28;20201;-83
2023/09/22 04:30:07;;;;;;;4.82;1.30;;;20.40;99.90;;;;;;5032518;28;20255;-83
2023/09/22 04:32:38;;;;;;;4.82;1.67;;;20.50;99.90;;;;;;5029574;28;20296;-83
2023/09/22 04:35:09;;;;;;;9.32;1.95;;;20.50;99.90;;;;;;5034128;28;20193;-83
2023/09/22 04:37:40;;;;;;;4.80;1.17;;;20.50;99.90;;;;;;5046133;28;20248;-82
2023/09/22 04:40:23;;;;;;;4.45;1.40;;;20.50;99.90;;;;;;5030355;28;20202;-83
2023/09/22 04:42:53;;;;;;;7.63;2.10;;;20.50;99.90;;;;;;5028193;28;20586;-82
2023/09/22 04:45:24;;;;;;;9.18;2.10;;;20.50;99.90;;;;;;5032462;28;20202;-83
2023/09/22 04:47:56;;;;;;;6.30;1.00;;;20.50;99.90;;;;;;5034094;28;20232;-82
2023/09/22 04:50:27;;;;;;;5.70;1.10;;;20.40;99.90;;;;;;5029238;28;20198;-83
2023/09/22 04:52:58;;;;;;;5.00;1.45;;;20.50;99.90;;;;;;5033098;28;20193;-83
2023/09/22 04:55:35;;;;;;;5.57;1.00;;;20.70;99.90;;;;;;5033890;28;20263;-83
2023/09/22 04:58:07;;;;;;;6.07;1.30;;;20.70;99.90;;;;;;5033308;28;20201;-83
2023/09/22 05:00:37;;;;;;;8.63;1.05;;;20.80;99.90;;;;;;5033175;28;20660;-84
2023/09/22 05:03:08;;;;;;;2.83;0.80;;;20.80;99.90;;;;;;5030612;28;20660;-84
2023/09/22 05:05:39;;;;;;;4.15;1.13;;;20.90;99.90;;;;;;5035210;28;20213;-84
2023/09/22 05:08:10;;;;;;;4.35;1.00;;;20.90;99.90;;;;;;5032878;28;20715;-83
2023/09/22 05:10:43;;;;;;;4.03;0.90;;;20.80;99.90;;;;;;5035249;28;20574;-82
2023/09/22 05:13:15;;;;;;;4.45;1.13;;;20.90;99.90;;;;;;5027742;28;20522;-80
2023/09/22 05:15:47;;;;;;;3.30;1.00;;;21.00;99.90;;;;;;5014421;28;20696;-82
2023/09/22 05:18:18;;;;;;;4.40;1.05;;;21.10;99.90;;;;;;5030855;28;20204;-83
2023/09/22 05:20:49;;;;;;;5.65;0.93;;;21.20;99.90;;;;;;5031914;28;20678;-83
2023/09/22 05:23:20;;;;;;;5.47;0.80;;;21.10;99.90;;;;;;5015200;28;20198;-83
2023/09/22 05:25:54;;;;;;;4.10;1.10;;;21.20;99.90;;;;;;5015001;28;20209;-83
2023/09/22 05:28:25;;;;;;;4.47;1.13;;;21.00;99.90;;;;;;5032431;28;20262;-84
2023/09/22 05:30:57;;;;;;;2.97;1.08;;;20.90;99.90;;;;;;5035079;28;20197;-84
2023/09/22 05:33:29;;;;;;;3.78;0.88;;;21.00;99.90;;;;;;5025485;28;20268;-83
2023/09/22 05:36:00;;;;;;;3.58;0.85;;;21.20;99.50;;;;;;5024631;28;20185;-84
2023/09/22 05:38:30;;;;;;;6.95;0.93;;;21.20;98.70;;;;;;5025167;28;20221;-84
2023/09/22 05:41:03;;;;;;;4.22;1.00;;;21.30;98.10;;;;;;5041104;28;20188;-84
2023/09/22 05:43:34;;;;;;;4.70;1.05;;;21.40;98.30;;;;;;5026239;28;20209;-85
2023/09/22 05:46:07;;;;;;;2.90;1.02;;;21.50;97.80;;;;;;5027912;28;20720;-84
2023/09/22 05:48:37;;;;;;;2.65;0.90;;;21.50;97.10;;;;;;5013340;28;20280;-84
2023/09/22 05:51:08;;;;;;;2.67;0.80;;;21.60;96.50;;;;;;5012875;28;20661;-84
2023/09/22 05:53:39;;;;;;;4.35;1.27;;;21.50;96.40;;;;;;5022068;28;20221;-83
2023/09/22 05:56:13;;;;;;;6.20;1.17;;;21.50;96.60;;;;;;5023352;28;20297;-83
2023/09/22 05:58:44;;;;;;;4.50;1.00;;;21.60;97.00;;;;;;5016684;28;20204;-83
2023/09/22 06:01:15;;;;;;;4.68;1.02;;;21.60;96.10;;;;;;5021679;28;20193;-83
2023/09/22 06:03:48;;;;;;;5.68;1.13;;;21.60;96.30;;;;;;5014674;28;20279;-83
2023/09/22 06:06:19;;;;;;;2.67;0.93;;;21.60;94.50;;;;;;5015107;28;20214;-83
2023/09/22 06:08:50;;;;;;;4.45;1.02;;;21.60;95.70;;;;;;5029610;28;20627;-83
2023/09/22 06:11:22;;;;;;;3.78;1.08;;;21.70;94.90;;;;;;5034565;28;20249;-83
2023/09/22 06:13:53;;;;;;;2.13;0.80;;;21.70;95.30;;;;;;5037494;28;20552;-84
2023/09/22 06:16:25;;;;;;;2.10;0.73;;;21.60;96.60;;;;;;5035486;28;20277;-83
2023/09/22 06:18:56;;;;;;;6.22;1.00;;;21.80;96.10;;;;;;5029466;28;20649;-84
2023/09/22 06:21:29;;;;;;;3.17;1.20;;;22.10;94.70;;;;;;5021352;28;20201;-83
2023/09/22 06:24:01;;;;;;;3.22;0.95;;;22.40;92.10;;;;;;5034336;28;20620;-84
2023/09/22 06:26:33;;;;;;;3.72;1.08;;;22.60;92.70;;;;;;5032666;28;20200;-83
2023/09/22 06:29:05;;;;;;;4.45;1.15;;;23.10;92.20;;;;;;5030697;28;20207;-83
2023/09/22 06:31:37;;;;;;;4.85;1.15;;;23.40;92.00;;;;;;5022736;28;20667;-84
2023/09/22 06:34:08;;;;;;;4.15;1.20;;;23.50;90.30;;;;;;5023816;28;20245;-83
2023/09/22 06:36:41;;;;;;;3.13;0.82;;;23.60;88.70;;;;;;5032729;28;20189;-84
2023/09/22 06:39:12;;;;;;;2.70;0.90;;;23.90;84.90;;;;;;5032339;28;20205;-83
2023/09/22 06:41:45;;;;;;;4.53;1.00;;;23.90;82.80;;;;;;5042065;28;20262;-83
2023/09/22 06:44:16;;;;;;;4.15;0.95;;;23.80;80.70;;;;;;5030498;28;20197;-82
2023/09/22 06:46:46;;;;;;;3.88;0.85;;;23.70;84.30;;;;;;5037165;28;20212;-83
2023/09/22 06:49:17;;;;;;;2.95;1.15;;;23.60;82.00;;;;;;5043643;28;20202;-84
2023/09/22 06:51:48;;;;;;;3.72;1.00;;;23.60;83.20;;;;;;5032729;28;20680;-86
2023/09/22 06:54:20;;;;;;;3.00;0.90;;;23.40;79.60;;;;;;5033797;28;20686;-83
2023/09/22 06:56:53;;;;;;;2.45;0.90;;;23.10;79.50;;;;;;5033022;28;20193;-85
2023/09/22 06:59:25;;;;;;;2.88;0.75;;;22.90;79.80;;;;;;5025836;28;20197;-83
2023/09/22 07:01:55;;;;;;;4.10;0.63;;;22.70;80.70;;;;;;5030381;28;20726;-83
2023/09/22 07:04:26;;;;;;;3.42;0.70;;;22.40;81.20;;;;;;5031858;28;20209;-84
2023/09/22 07:06:57;;;;;;;2.35;0.77;;;22.00;82.70;;;;;;5022568;28;20245;-83
2023/09/22 07:09:27;;;;;;;3.92;0.82;;;21.70;84.70;;;;;;5028865;28;20193;-84
2023/09/22 07:12:02;;;;;;;3.08;0.93;;;21.50;85.30;;;;;;5030944;28;20229;-84
2023/09/22 07:14:36;;;;;;;5.35;0.90;;;21.10;86.90;;;;;;5022396;28;20216;-84
2023/09/22 07:17:07;;;;;;;3.83;1.17;;;20.80;88.80;;;;;;5031086;28;20197;-84
2023/09/22 07:19:41;;;;;;;3.53;0.95;;;20.40;89.40;;;;;;5029876;28;20197;-83
2023/09/22 07:22:13;;;;;;;5.20;1.20;;;20.10;90.70;;;;;;5049458;28;20200;-84
2023/09/22 07:24:44;;;;;;;3.42;1.05;;;19.90;91.20;;;;;;5028654;28;20190;-82
2023/09/22 07:27:16;;;;;;;4.20;0.90;;;19.80;92.00;;;;;;5023773;28;20657;-83
2023/09/22 07:29:50;;;;;;;4.55;0.85;;;19.50;93.60;;;;;;5011268;28;20206;-84
2023/09/22 07:32:21;;;;;;;4.50;1.00;;;19.40;94.50;;;;;;5012424;28;20255;-83
2023/09/22 07:34:52;;;;;;;5.68;0.80;;;19.20;95.50;;;;;;5016656;28;20575;-83
2023/09/22 07:37:24;;;;;;;4.30;1.00;;;19.10;97.00;;;;;;5037417;28;20197;-84
2023/09/22 07:39:55;;;;;;;4.03;0.90;;;19.00;97.50;;;;;;5037253;28;20365;-82
2023/09/22 07:42:31;;;;;;;2.72;1.10;;;18.90;97.60;;;;;;5032733;28;20193;-84
2023/09/22 07:45:02;;;;;;;3.92;0.80;;;18.70;98.40;;;;;;5045274;28;20197;-83
2023/09/22 07:47:34;;;;;;;4.28;1.08;;;18.60;98.80;;;;;;5038287;28;20208;-83
2023/09/22 07:50:05;;;;;;;3.55;0.80;;;18.50;99.90;;;;;;5038409;28;20204;-83
2023/09/22 07:52:36;;;;;;;4.70;1.20;;;18.40;99.90;;;;;;5036303;28;20235;-83
2023/09/22 07:55:07;;;;;;;2.95;0.90;;;18.30;99.90;;;;;;5030541;28;20225;-84
2023/09/22 07:57:40;;;;;;;1.80;0.70;;;18.30;99.90;;;;;;5031940;28;20193;-84
2023/09/22 08:00:14;;;;;;;2.63;0.80;;;18.20;99.90;;;;;;5035734;28;20197;-84
2023/09/22 08:02:45;;;;;;;1.70;0.73;;;18.20;99.90;;;;;;5018370;28;20207;-83
2023/09/22 08:05:16;;;;;;;3.42;1.00;;;18.20;99.90;;;;;;5021390;28;20244;-84
2023/09/22 08:07:47;;;;;;;4.43;1.38;;;18.20;99.90;;;;;;5037287;28;20201;-84
2023/09/22 08:10:22;;;;;;;8.52;3.95;;;18.10;99.90;;;;;;5025328;28;20194;-84
2023/09/22 08:12:55;;;;;;;6.78;2.00;;;18.10;99.90;;;;;;5048657;28;20229;-83
2023/09/22 08:15:26;;;;;;;4.85;2.00;;;17.90;99.90;;;;;;5037494;28;20235;-83
2023/09/22 08:17:57;;;;;;;4.43;1.80;;;18.00;99.90;;;;;;5026282;28;20205;-83
2023/09/22 08:20:28;;;;;;;5.60;1.20;;;18.00;99.90;;;;;;5036761;28;20619;-84
2023/09/22 08:22:59;;;;;;;2.92;1.30;;;18.00;99.90;;;;;;5037685;28;20284;-83
2023/09/22 08:25:30;;;;;;;2.47;1.50;;;17.90;99.90;;;;;;5027981;28;20205;-83
2023/09/22 08:28:03;;;;;;;4.95;1.85;;;17.90;99.90;;;;;;5022130;28;20629;-85
2023/09/22 08:30:34;;;;;;;2.70;1.75;;;17.80;99.90;;;;;;5053820;28;20676;-84
2023/09/22 08:33:05;;;;;;;5.07;1.20;;;17.80;99.90;;;;;;5036846;28;20229;-84
2023/09/22 08:35:37;;;;;;;2.95;1.17;;;17.80;99.90;;;;;;5032073;28;20256;-83
2023/09/22 08:38:08;;;;;;;2.33;0.88;;;17.70;99.90;;;;;;5035140;28;20283;-83
2023/09/22 08:40:39;;;;;;;2.67;0.90;;;17.70;99.90;;;;;;5047573;28;20280;-83
2023/09/22 08:43:13;;;;;;;3.15;1.30;;;17.70;99.90;;;;;;5032419;28;20197;-83
2023/09/22 08:45:45;;;;;;;5.53;2.05;;;17.70;99.90;;;;;;5038256;28;20253;-86
2023/09/22 08:48:15;;;;;;;4.05;1.42;;;17.80;99.90;;;;;;5044247;28;20205;-83
2023/09/22 08:50:49;;;;;;;4.85;1.60;;;17.80;99.90;;;;;;5015126;28;20202;-80
2023/09/22 08:53:20;;;;;;;3.95;1.60;;;17.90;99.90;;;;;;5030825;28;20198;-84
2023/09/22 08:55:51;;;;;;;6.25;1.80;;;17.80;99.90;;;;;;5033531;28;20232;-82
2023/09/22 08:58:24;;;;;;;5.00;2.25;;;17.90;99.90;;;;;;5034683;28;20194;-84
2023/09/22 09:00:55;;;;;;;6.25;1.50;;;17.90;99.90;;;;;;5032664;28;20292;-83
2023/09/22 09:03:29;;;;;;;2.80;1.20;;;17.80;99.90;;;;;;5028550;28;20198;-84
2023/09/22 09:06:10;;;;;;;4.13;1.65;;;17.90;99.90;;;;;;5016315;28;20241;-84
2023/09/22 09:08:40;;;;;;;6.03;1.70;;;17.80;99.90;;;;;;5034766;28;20198;-84
2023/09/22 09:11:12;;;;;;;2.42;1.13;;;17.90;99.90;;;;;;5028410;28;20276;-83
2023/09/22 09:13:45;;;;;;;3.15;1.60;;;17.90;99.90;;;;;;5034036;28;20205;-85
2023/09/22 09:16:33;;;;;;;10.55;4.63;;;17.90;99.90;;;;;;5033929;28;20224;-84
2023/09/22 09:19:20;;;;;;;5.93;1.80;;;17.90;99.90;;;;;;5034881;28;20204;-84
2023/09/22 09:22:10;;;;;;;6.00;1.95;;;17.80;99.90;;;;;;5033549;28;20193;-84
2023/09/22 09:24:41;;;;;;;6.85;4.55;;;17.80;99.90;;;;;;5028807;28;20201;-83
2023/09/22 09:27:22;;;;;;;6.72;3.60;;;17.70;99.90;;;;;;5021852;28;20280;-84
2023/09/22 09:29:55;;;;;;;10.40;4.05;;;17.70;99.90;;;;;;5034200;28;20227;-84
2023/09/22 09:32:29;;;;;;;6.93;4.55;;;17.70;99.90;;;;;;5031202;28;20193;-83
2023/09/22 09:35:00;;;;;;;6.20;4.03;;;17.70;99.90;;;;;;5025991;28;20224;-84
2023/09/22 09:37:32;;;;;;;3.45;2.05;;;17.70;99.90;;;;;;5048703;28;20210;-83
2023/09/22 09:40:04;;;;;;;4.82;1.30;;;17.70;99.90;;;;;;5033258;28;20197;-83
2023/09/22 09:42:41;;;;;;;5.75;2.30;;;17.60;99.90;;;;;;5034568;28;20280;-84
2023/09/22 09:45:17;;;;;;;5.78;2.45;;;17.60;99.90;;;;;;5032435;28;20514;-83
2023/09/22 09:47:50;;;;;;;6.20;2.90;;;17.70;99.90;;;;;;5039976;28;20236;-81
2023/09/22 09:50:24;;;;;;;5.63;1.90;;;17.60;99.90;;;;;;5044373;28;20201;-82
2023/09/22 09:52:57;;;;;;;4.85;1.80;;;17.60;99.90;;;;;;5035233;28;20709;-83
2023/09/22 09:55:29;;;;;;;4.53;1.42;;;17.50;99.90;;;;;;5033180;28;20229;-84
2023/09/22 09:58:02;;;;;;;3.78;1.23;;;17.60;99.90;;;;;;5031559;28;20197;-84
2023/09/22 10:00:36;;;;;;;4.93;1.70;;;17.50;99.90;;;;;;5032733;28;20186;-84
2023/09/22 10:03:08;;;;;;;5.85;2.25;;;17.50;99.90;;;;;;5028017;28;20193;-81
2023/09/22 10:05:40;;;;;;;5.60;2.20;;;17.50;99.90;;;;;;5027355;28;20213;-83
2023/09/22 10:08:14;;;;;;;5.80;2.00;;;17.40;99.90;;;;;;5032613;28;20205;-83
2023/09/22 10:10:45;;;;;;;5.63;1.90;;;17.50;99.90;;;;;;5033061;28;20197;-84
2023/09/22 10:13:16;;;;;;;3.60;1.60;;;17.40;99.90;;;;;;5032510;28;20217;-83
2023/09/22 10:16:02;;;;;;;6.28;2.10;;;17.40;99.90;;;;;;5032713;28;20221;-83
2023/09/22 10:18:52;;;;;;;3.97;1.80;;;17.40;99.90;;;;;;5036385;28;20569;-83
2023/09/22 10:21:45;;;;;;;5.00;1.58;;;17.40;99.90;;;;;;5032874;28;20205;-83
2023/09/22 10:24:23;;;;;;;5.57;1.67;;;17.40;99.90;;;;;;5024939;28;20201;-84
2023/09/22 10:27:11;;;;;;;4.50;1.23;;;17.40;99.90;;;;;;5020273;28;20182;-83
2023/09/22 10:29:51;;;;;;;3.65;1.40;;;17.40;99.90;;;;;;5047230;28;20196;-84
2023/09/22 10:32:33;;;;;;;3.67;1.45;;;17.30;99.90;;;;;;5024740;28;20201;-83
2023/09/22 10:35:05;;;;;;;3.70;1.50;;;17.40;99.90;;;;;;5031932;28;20235;-84
2023/09/22 10:37:37;;;;;;;4.05;1.75;;;17.40;99.90;;;;;;5028573;28;20189;-83
2023/09/22 10:40:15;;;;;;;6.78;2.10;;;17.30;99.90;;;;;;5031861;28;20201;-83
2023/09/22 10:42:49;;;;;;;6.60;3.90;;;17.30;99.90;;;;;;5031179;28;20275;-83
2023/09/22 10:45:24;;;;;;;6.55;3.10;;;17.30;99.90;;;;;;5031814;28;20659;-83
2023/09/22 10:47:59;;;;;;;5.80;2.65;;;17.30;99.90;;;;;;5022272;28;21250;-83
2023/09/22 10:50:31;;;;;;;3.30;1.52;;;17.20;99.90;;;;;;5030477;28;20200;-83
2023/09/22 10:53:03;;;;;;;5.35;1.90;;;17.20;99.90;;;;;;5043667;28;20190;-84
2023/09/22 10:55:36;;;;;;;5.05;1.88;;;17.30;99.90;;;;;;5031669;28;20253;-84
2023/09/22 10:58:08;;;;;;;5.20;1.80;;;17.20;99.90;;;;;;5031520;28;20220;-85
2023/09/22 11:00:39;;;;;;;4.25;1.55;;;17.30;99.90;;;;;;5030840;28;20197;-84
2023/09/22 11:03:14;;;;;;;3.72;1.55;;;17.20;99.90;;;;;;5031752;28;20228;-83
2023/09/22 11:05:46;;;;;;;2.33;1.20;;;17.30;99.90;;;;;;5030766;28;20286;-84
2023/09/22 11:08:18;;;;;;;6.15;1.50;;;17.20;99.90;;;;;;5031259;28;20221;-84
2023/09/22 11:10:52;;;;;;;7.10;1.80;;;17.20;99.90;;;;;;5028627;28;20706;-84
2023/09/22 11:13:23;;;;;;;4.05;1.50;;;17.20;99.90;;;;;;5012725;28;20225;-84
2023/09/22 11:15:56;;;;;;;4.55;1.42;;;17.20;99.90;;;;;;5018121;28;20225;-83
2023/09/22 11:18:30;;;;;;;2.10;1.00;;;17.20;99.90;;;;;;5034407;28;20224;-84
2023/09/22 11:21:02;;;;;;;3.20;1.40;;;17.10;99.90;;;;;;5016025;28;20255;-85
2023/09/22 11:23:35;;;;;;;5.28;1.00;;;17.10;99.90;;;;;;5031179;28;20240;-84
2023/09/22 11:26:08;;;;;;;3.95;1.10;;;17.20;99.90;;;;;;5030144;28;20683;-84
2023/09/22 11:28:43;;;;;;;5.40;1.35;;;17.20;99.90;;;;;;5032095;28;20186;-83
2023/09/22 11:31:15;;;;;;;6.75;2.20;;;17.10;99.90;;;;;;5026995;28;20581;-82
2023/09/22 11:34:01;;;;;;;4.80;1.40;;;17.20;99.90;;;;;;5019382;28;20201;-82
2023/09/22 11:36:46;;;;;;;3.55;1.40;;;17.20;99.90;;;;;;5026217;28;20228;-84
2023/09/22 11:39:28;;;;;;;3.92;1.15;;;17.10;99.90;;;;;;5031362;28;20207;-84
2023/09/22 11:42:01;;;;;;;4.25;1.05;;;17.00;99.90;;;;;;5030518;28;20208;-85
2023/09/22 11:44:31;;;;;;;2.08;0.90;;;17.00;99.90;;;;;;5031213;28;20224;-84
2023/09/22 11:47:03;;;;;;;2.95;1.20;;;17.00;99.90;;;;;;5030963;28;20203;-84
2023/09/22 11:49:40;;;;;;;3.03;1.38;;;17.00;99.90;;;;;;5034817;28;20193;-83
2023/09/22 11:52:11;;;;;;;6.55;2.15;;;17.00;99.90;;;;;;5039527;28;20257;-82
2023/09/22 11:54:45;;;;;;;6.70;2.08;;;17.00;99.90;;;;;;5044573;28;20249;-84
2023/09/22 11:57:17;;;;;;;5.18;1.63;;;17.00;99.90;;;;;;5042103;28;20224;-85
2023/09/22 11:59:48;;;;;;;6.72;1.45;;;16.90;99.90;;;;;;5033760;28;20209;-84
2023/09/22 12:02:19;;;;;;;3.30;1.10;;;16.90;99.90;;;;;;5035195;28;20220;-86
2023/09/22 12:04:52;;;;;;;6.60;1.23;;;16.90;99.90;;;;;;5031342;28;20213;-84
2023/09/22 12:07:23;;;;;;;2.65;1.05;;;16.80;99.90;;;;;;5018051;28;20633;-84
2023/09/22 12:09:54;;;;;;;3.60;1.08;;;16.80;99.90;;;;;;5044611;28;20212;-83
2023/09/22 12:12:25;;;;;;;4.13;1.25;;;16.80;99.90;;;;;;5015174;28;20230;-84
2023/09/22 12:14:56;;;;;;;4.88;1.48;;;16.80;99.90;;;;;;5017807;28;20252;-83
2023/09/22 12:17:27;;;;;;;3.95;1.13;;;16.70;99.90;;;;;;5034484;28;20244;-85
2023/09/22 12:19:59;;;;;;;3.05;1.10;;;16.80;99.90;;;;;;5033365;28;20649;-82
2023/09/22 12:22:32;;;;;;;2.63;1.00;;;16.70;99.90;;;;;;5034906;28;20281;-82
2023/09/22 12:25:02;;;;;;;3.92;1.10;;;16.80;99.90;;;;;;5034057;28;20281;-84
2023/09/22 12:27:33;;;;;;;5.90;0.90;;;16.70;99.90;;;;;;5026760;28;20716;-82
2023/09/22 12:30:12;;;;;;;4.47;0.90;;;16.80;99.90;;;;;;5033942;28;20216;-86
2023/09/22 12:32:44;;;;;;;3.63;0.90;;;16.80;99.90;;;;;;5038578;28;20197;-82
2023/09/22 12:35:17;;;;;;;2.35;0.90;;;16.80;99.90;;;;;;5032497;28;20201;-83
2023/09/22 12:37:51;;;;;;;3.42;0.93;;;16.80;99.90;;;;;;5037890;28;20205;-83
2023/09/22 12:40:27;;;;;;;3.60;0.85;;;16.80;99.90;;;;;;5027800;28;20256;-84
2023/09/22 12:42:58;;;;;;;1.75;0.70;;;16.80;99.90;;;;;;5040523;28;20195;-84
2023/09/22 12:45:29;;;;;;;2.03;0.98;;;16.80;99.90;;;;;;5039224;28;20197;-82
2023/09/22 12:48:01;;;;;;;2.40;0.80;;;16.70;99.90;;;;;;5037875;28;20197;-83
2023/09/22 12:50:43;;;;;;;2.45;0.85;;;16.80;99.90;;;;;;5038444;28;20193;-83
2023/09/22 12:53:14;;;;;;;5.63;1.42;;;16.70;99.90;;;;;;5042693;28;20201;-84
2023/09/22 12:55:45;;;;;;;4.65;1.10;;;16.70;99.90;;;;;;5039075;28;20315;-83
2023/09/22 12:58:16;;;;;;;3.30;0.85;;;16.70;99.90;;;;;;5048735;28;20224;-82
2023/09/22 13:00:49;;;;;;;2.65;1.00;;;16.70;99.90;;;;;;5050934;28;20235;-82
2023/09/22 13:03:19;;;;;;;1.70;0.80;;;16.60;99.90;;;;;;5048413;28;20202;-83
2023/09/22 13:05:54;;;;;;;7.93;0.95;;;16.60;99.90;;;;;;5039058;28;20221;-82
2023/09/22 13:08:25;;;;;;;5.25;0.95;;;16.60;99.90;;;;;;5041184;28;20197;-86
2023/09/22 13:10:55;;;;;;;2.53;1.25;;;16.60;99.90;;;;;;5036602;28;20623;-86
2023/09/22 13:13:26;;;;;;;2.60;1.20;;;16.60;99.90;;;;;;5016840;28;20218;-85